MSC Federica — HPQE — position and weather

sailwx.info

Track history (hours):
 
Tides and Currents Weather Stations Pressure Air Temp Water Temp Dewpoint Dewpoint Depression Visibility Wind Speed Wind Dir Waves Ship Positions

MSC Federica

Last reported at 2014-Sep-15 07:29 UTC. Time now 2014-Oct-26 06:57 UTC.
Position N 26°22' W 078°60'.
Warning: this ship's position is 40 days out of date.

Length 294 m; draft 8.9 m.

Type: Ship (hazmat cat B). MMSI: 357363000.

Date/timePositionNaut miles runAvg speedWind from/ knotsBaromVisibWave heightAir tempDewpointWater temp
2014-Sep-15 07:29N 26°22' W 078°60'3 0.5
2014-Sep-15 01:15N 26°19' W 079°01'0 0.7
2014-Sep-15 00:33N 26°19' W 079°00'4 4.4
2014-Sep-14 23:34N 26°22' W 078°57'40 6.5
2014-Sep-14 17:27N 26°10' W 078°14'0 0.2
2014-Sep-14 14:27N 26°10' W 078°14'  
2014-Sep-10 10:24N 37°51' W 074°25'1718.0
2014-Sep-10 09:28N 38°07' W 074°20'1917.6
2014-Sep-10 08:24N 38°26' W 074°15'1517.4
2014-Sep-10 07:33N 38°40' W 074°11'1717.4
2014-Sep-10 06:33N 38°57' W 074°07'1817.5
2014-Sep-10 05:33N 39°14' W 074°02'1717.5
2014-Sep-10 04:33N 39°31' W 073°57'1717.3
2014-Sep-10 03:33N 39°48' W 073°53'1716.9
2014-Sep-10 02:34N 40°05' W 073°51'1716.8
2014-Sep-10 01:33N 40°22' W 073°49'1110.9
2014-Sep-10 00:33N 40°30' W 073°58'1111.0
2014-Sep-09 23:33N 40°39' W 074°07'3 3.1
2014-Sep-09 22:33N 40°41' W 074°09'0 0.0
2014-Sep-09 21:33N 40°41' W 074°09'0 0.0
2014-Sep-09 20:33N 40°41' W 074°09'0 0.0
2014-Sep-09 19:33N 40°41' W 074°09'0 0.0
2014-Sep-09 18:33N 40°41' W 074°09'0 0.0
2014-Sep-09 17:33N 40°41' W 074°09'0 0.0
2014-Sep-09 16:33N 40°41' W 074°09'0 0.0
2014-Sep-09 15:33N 40°41' W 074°09'0 0.0
2014-Sep-09 14:33N 40°41' W 074°09'0 0.0
2014-Sep-09 13:30N 40°41' W 074°09'0 0.0
2014-Sep-09 12:33N 40°41' W 074°09'0 0.0
2014-Sep-09 11:33N 40°41' W 074°09'0 0.0
2014-Sep-09 10:33N 40°41' W 074°09'0 0.0
2014-Sep-09 09:33N 40°41' W 074°09'0 0.0
2014-Sep-09 08:33N 40°41' W 074°09'0 0.0
2014-Sep-09 07:33N 40°41' W 074°09'0 0.0
2014-Sep-09 06:33N 40°41' W 074°09'0 0.0
2014-Sep-09 05:33N 40°41' W 074°09'2 1.5
2014-Sep-09 04:33N 40°40' W 074°09'4 4.5
2014-Sep-09 03:33N 40°38' W 074°03'1211.8
2014-Sep-09 02:33N 40°29' W 073°53'9 8.1
2014-Sep-09 01:30N 40°22' W 073°47'1515.6
2014-Sep-09 00:32N 40°07' W 073°45'1212.3
2014-Sep-08 23:33N 39°55' W 073°43'2019.4
2014-Sep-08 22:32N 39°35' W 073°42'1919.6
2014-Sep-08 21:33N 39°18' W 073°53'7410.2
2014-Sep-08 14:18N 39°23' W 075°28'2211.7
2014-Sep-08 12:26N 39°44' W 075°30'1910.0
2014-Sep-08 10:33N 39°53' W 075°08'  
Track history (hours):
 
Tides and Currents Weather Stations Pressure Air Temp Water Temp Dewpoint Dewpoint Depression Visibility Wind Speed Wind Dir Waves Ship Positions

MSC Federica

Last reported at 2014-Sep-15 07:29 UTC. Time now 2014-Oct-26 06:57 UTC.
Position N 26°22' W 078°60'.
Warning: this ship's position is 40 days out of date.

Length 294 m; draft 8.9 m.

Type: Ship (hazmat cat B). MMSI: 357363000.

Date/timePositionNaut miles runAvg speedWind from/ knotsBaromVisibWave heightAir tempDewpointWater temp
2014-Sep-15 07:29N 26°22' W 078°60'3 0.5
2014-Sep-15 01:15N 26°19' W 079°01'0 0.7
2014-Sep-15 00:33N 26°19' W 079°00'4 4.4
2014-Sep-14 23:34N 26°22' W 078°57'40 6.5
2014-Sep-14 17:27N 26°10' W 078°14'0 0.2
2014-Sep-14 14:27N 26°10' W 078°14'  
2014-Sep-10 10:24N 37°51' W 074°25'1718.0
2014-Sep-10 09:28N 38°07' W 074°20'1917.6
2014-Sep-10 08:24N 38°26' W 074°15'1517.4
2014-Sep-10 07:33N 38°40' W 074°11'1717.4
2014-Sep-10 06:33N 38°57' W 074°07'1817.5
2014-Sep-10 05:33N 39°14' W 074°02'1717.5
2014-Sep-10 04:33N 39°31' W 073°57'1717.3
2014-Sep-10 03:33N 39°48' W 073°53'1716.9
2014-Sep-10 02:34N 40°05' W 073°51'1716.8
2014-Sep-10 01:33N 40°22' W 073°49'1110.9
2014-Sep-10 00:33N 40°30' W 073°58'1111.0
2014-Sep-09 23:33N 40°39' W 074°07'3 3.1
2014-Sep-09 22:33N 40°41' W 074°09'0 0.0
2014-Sep-09 21:33N 40°41' W 074°09'0 0.0
2014-Sep-09 20:33N 40°41' W 074°09'0 0.0
2014-Sep-09 19:33N 40°41' W 074°09'0 0.0
2014-Sep-09 18:33N 40°41' W 074°09'0 0.0
2014-Sep-09 17:33N 40°41' W 074°09'0 0.0
2014-Sep-09 16:33N 40°41' W 074°09'0 0.0
2014-Sep-09 15:33N 40°41' W 074°09'0 0.0
2014-Sep-09 14:33N 40°41' W 074°09'0 0.0
2014-Sep-09 13:30N 40°41' W 074°09'0 0.0
2014-Sep-09 12:33N 40°41' W 074°09'0 0.0
2014-Sep-09 11:33N 40°41' W 074°09'0 0.0
2014-Sep-09 10:33N 40°41' W 074°09'0 0.0
2014-Sep-09 09:33N 40°41' W 074°09'0 0.0
2014-Sep-09 08:33N 40°41' W 074°09'0 0.0
2014-Sep-09 07:33N 40°41' W 074°09'0 0.0
2014-Sep-09 06:33N 40°41' W 074°09'0 0.0
2014-Sep-09 05:33N 40°41' W 074°09'2 1.5
2014-Sep-09 04:33N 40°40' W 074°09'4 4.5
2014-Sep-09 03:33N 40°38' W 074°03'1211.8
2014-Sep-09 02:33N 40°29' W 073°53'9 8.1
2014-Sep-09 01:30N 40°22' W 073°47'1515.6
2014-Sep-09 00:32N 40°07' W 073°45'1212.3
2014-Sep-08 23:33N 39°55' W 073°43'2019.4
2014-Sep-08 22:32N 39°35' W 073°42'1919.6
2014-Sep-08 21:33N 39°18' W 073°53'7410.2
2014-Sep-08 14:18N 39°23' W 075°28'2211.7
2014-Sep-08 12:26N 39°44' W 075°30'1910.0
2014-Sep-08 10:33N 39°53' W 075°08'  

Dump ship's entire track history